Time;durP1;ratioP1;P1;durP2;ratioP2;P2;SDS_P1;SDS_P2;PMS_P1;PMS_P2;Temp;Humidity;BMP_temperature;BMP_pressure;BME280_temperature;BME280_humidity;BME280_pressure;Samples;Min_cycle;Max_cycle;Signal;HPM_P1;HPM_P2
2023/05/14 00:02:14;;;;;;;20.13;12.90;;;;;;;;;;5113375;28;20453;-72
2023/05/14 00:04:41;;;;;;;17.73;10.67;;;;;;;;;;5113401;28;20463;-72
2023/05/14 00:07:10;;;;;;;16.00;11.90;;;;;;;;;;5113768;28;20536;-72
2023/05/14 00:09:37;;;;;;;18.20;13.17;;;;;;;;;;5113372;28;20521;-72
2023/05/14 00:12:04;;;;;;;16.50;11.63;;;;;;;;;;5113413;28;20522;-72
2023/05/14 00:14:32;;;;;;;18.37;12.80;;;;;;;;;;5113055;28;20965;-72
2023/05/14 00:16:59;;;;;;;15.50;11.20;;;;;;;;;;5113403;28;20458;-72
2023/05/14 00:19:26;;;;;;;18.23;11.90;;;;;;;;;;5113006;28;20469;-72
2023/05/14 00:21:53;;;;;;;18.80;12.67;;;;;;;;;;5113430;28;20452;-72
2023/05/14 00:24:22;;;;;;;15.90;12.90;;;;;;;;;;5112921;28;20477;-72
2023/05/14 00:26:49;;;;;;;26.83;15.67;;;;;;;;;;5113494;28;20883;-72
2023/05/14 00:29:16;;;;;;;17.50;12.87;;;;;;;;;;5113424;28;20481;-72
2023/05/14 00:31:43;;;;;;;21.07;14.20;;;;;;;;;;5113351;28;20456;-72
2023/05/14 00:34:10;;;;;;;19.20;14.13;;;;;;;;;;5113082;28;20545;-72
2023/05/14 00:36:37;;;;;;;22.37;14.80;;;;;;;;;;5113222;28;20461;-72
2023/05/14 00:39:05;;;;;;;16.27;11.87;;;;;;;;;;5113101;28;20454;-73
2023/05/14 00:41:33;;;;;;;21.47;14.73;;;;;;;;;;5113071;28;20457;-72
2023/05/14 00:44:00;;;;;;;21.47;12.40;;;;;;;;;;5112960;28;20990;-72
2023/05/14 00:46:27;;;;;;;20.07;14.13;;;;;;;;;;5113111;28;20465;-72
2023/05/14 00:48:55;;;;;;;22.93;14.33;;;;;;;;;;5112988;28;20484;-72
2023/05/14 00:51:22;;;;;;;18.30;13.20;;;;;;;;;;5113066;28;20449;-72
2023/05/14 00:53:49;;;;;;;23.80;13.87;;;;;;;;;;5113011;28;20477;-72
2023/05/14 00:56:17;;;;;;;18.90;13.23;;;;;;;;;;5113182;28;20456;-72
2023/05/14 00:58:45;;;;;;;22.80;14.70;;;;;;;;;;5113023;28;20441;-72
2023/05/14 01:01:14;;;;;;;20.70;14.23;;;;;;;;;;5116646;28;20450;-72
2023/05/14 01:03:41;;;;;;;19.53;14.90;;;;;;;;;;5116503;28;20473;-72
2023/05/14 01:06:12;;;;;;;18.40;13.60;;;;;;;;;;5116666;27;20441;-72
2023/05/14 01:08:45;;;;;;;20.60;14.00;;;;;;;;;;5116621;28;20482;-72
2023/05/14 01:11:14;;;;;;;19.93;14.33;;;;;;;;;;5116530;28;20450;-72
2023/05/14 01:13:44;;;;;;;23.93;13.57;;;;;;;;;;5116325;28;20485;-72
2023/05/14 01:16:13;;;;;;;17.83;13.63;;;;;;;;;;5116578;28;20480;-72
2023/05/14 01:18:41;;;;;;;21.33;13.03;;;;;;;;;;5116501;28;20504;-72
2023/05/14 01:21:19;;;;;;;20.80;13.60;;;;;;;;;;5115883;28;20457;-73
2023/05/14 01:23:47;;;;;;;19.40;14.07;;;;;;;;;;5116123;28;20477;-72
2023/05/14 01:26:14;;;;;;;22.20;15.50;;;;;;;;;;5116247;28;20817;-72
2023/05/14 01:28:42;;;;;;;25.00;13.27;;;;;;;;;;5116005;28;20492;-72
2023/05/14 01:31:12;;;;;;;18.73;13.00;;;;;;;;;;5116214;27;20449;-72
2023/05/14 01:33:42;;;;;;;21.30;15.20;;;;;;;;;;5115917;27;20469;-72
2023/05/14 01:36:09;;;;;;;22.37;14.20;;;;;;;;;;5116038;28;21008;-72
2023/05/14 01:38:36;;;;;;;19.33;12.73;;;;;;;;;;5116107;28;20458;-72
2023/05/14 01:41:05;;;;;;;22.83;15.43;;;;;;;;;;5116011;27;20457;-72
2023/05/14 01:43:32;;;;;;;18.93;13.40;;;;;;;;;;5115808;28;20462;-73
2023/05/14 01:46:00;;;;;;;17.77;12.67;;;;;;;;;;5115888;28;20458;-72
2023/05/14 01:48:28;;;;;;;16.90;12.73;;;;;;;;;;5115628;28;20446;-72
2023/05/14 01:50:55;;;;;;;21.60;13.03;;;;;;;;;;5115766;27;20457;-72
2023/05/14 01:53:22;;;;;;;18.87;12.40;;;;;;;;;;5115805;28;20823;-72
2023/05/14 01:55:50;;;;;;;19.33;13.07;;;;;;;;;;5115387;28;20453;-72
2023/05/14 01:58:18;;;;;;;19.37;13.10;;;;;;;;;;5115712;28;20445;-72
2023/05/14 02:00:46;;;;;;;22.13;13.70;;;;;;;;;;5115678;28;20446;-72
2023/05/14 02:03:13;;;;;;;23.63;13.80;;;;;;;;;;5115692;28;20569;-72
2023/05/14 02:05:40;;;;;;;23.07;13.70;;;;;;;;;;5115310;28;20814;-72
2023/05/14 02:08:07;;;;;;;23.83;14.07;;;;;;;;;;5115574;28;20453;-72
2023/05/14 02:10:34;;;;;;;19.73;13.67;;;;;;;;;;5114839;28;20481;-72
2023/05/14 02:13:01;;;;;;;19.13;12.70;;;;;;;;;;5114832;28;20473;-72
2023/05/14 02:15:30;;;;;;;15.43;11.70;;;;;;;;;;5114974;28;20461;-72
2023/05/14 02:17:57;;;;;;;20.47;13.17;;;;;;;;;;5115372;28;20449;-72
2023/05/14 02:20:24;;;;;;;21.47;13.30;;;;;;;;;;5114868;28;20442;-72
2023/05/14 02:22:51;;;;;;;16.50;12.33;;;;;;;;;;5115201;28;20468;-72
2023/05/14 02:25:18;;;;;;;18.43;11.97;;;;;;;;;;5115084;28;20472;-72
2023/05/14 02:27:45;;;;;;;17.33;12.70;;;;;;;;;;5115021;28;20461;-72
2023/05/14 02:30:12;;;;;;;19.03;13.10;;;;;;;;;;5114867;28;20492;-72
2023/05/14 02:32:41;;;;;;;16.73;13.00;;;;;;;;;;5114963;28;20997;-72
2023/05/14 02:35:08;;;;;;;18.23;12.70;;;;;;;;;;5115432;28;20460;-72
2023/05/14 02:37:35;;;;;;;16.83;12.63;;;;;;;;;;5114871;28;20457;-72
2023/05/14 02:40:03;;;;;;;18.23;12.00;;;;;;;;;;5114758;28;20442;-72
2023/05/14 02:42:30;;;;;;;15.23;11.83;;;;;;;;;;5114538;28;20904;-72
2023/05/14 02:44:57;;;;;;;19.43;13.30;;;;;;;;;;5114749;28;20446;-72
2023/05/14 02:47:24;;;;;;;15.40;11.67;;;;;;;;;;5114654;28;20458;-72
2023/05/14 02:49:53;;;;;;;16.43;10.63;;;;;;;;;;5114634;28;20485;-72
2023/05/14 02:52:20;;;;;;;19.43;11.73;;;;;;;;;;5114499;28;20445;-72
2023/05/14 02:54:47;;;;;;;18.50;12.17;;;;;;;;;;5114100;27;20457;-72
2023/05/14 02:57:14;;;;;;;17.33;12.87;;;;;;;;;;5114515;28;20457;-72
2023/05/14 02:59:41;;;;;;;14.67;11.30;;;;;;;;;;5114512;28;20530;-72
2023/05/14 03:02:08;;;;;;;15.97;12.50;;;;;;;;;;5114381;28;20950;-72
2023/05/14 03:04:35;;;;;;;18.70;12.13;;;;;;;;;;5114046;28;20829;-72
2023/05/14 03:07:04;;;;;;;20.53;12.80;;;;;;;;;;5114283;28;20464;-72
2023/05/14 03:09:31;;;;;;;17.20;13.50;;;;;;;;;;5114053;28;20488;-72
2023/05/14 03:11:58;;;;;;;19.30;11.90;;;;;;;;;;5114346;28;20454;-72
2023/05/14 03:14:25;;;;;;;15.10;11.67;;;;;;;;;;5113816;28;21013;-72
2023/05/14 03:16:52;;;;;;;18.70;12.10;;;;;;;;;;5114229;28;20465;-72
2023/05/14 03:19:19;;;;;;;20.60;11.97;;;;;;;;;;5114202;28;20857;-72
2023/05/14 03:21:46;;;;;;;17.57;13.67;;;;;;;;;;5113982;28;20457;-72
2023/05/14 03:24:14;;;;;;;14.10;12.20;;;;;;;;;;5113604;28;20462;-72
2023/05/14 03:26:41;;;;;;;19.93;13.20;;;;;;;;;;5113919;28;20442;-72
2023/05/14 03:29:09;;;;;;;19.53;12.83;;;;;;;;;;5113849;28;20446;-72
2023/05/14 03:31:36;;;;;;;19.57;13.37;;;;;;;;;;5114286;28;20458;-72
2023/05/14 03:34:03;;;;;;;18.40;12.00;;;;;;;;;;5113731;28;20481;-72
2023/05/14 03:36:31;;;;;;;18.17;12.47;;;;;;;;;;5113737;28;20819;-72
2023/05/14 03:38:58;;;;;;;14.93;11.47;;;;;;;;;;5113686;28;20461;-72
2023/05/14 03:41:27;;;;;;;16.40;12.20;;;;;;;;;;5113844;28;20449;-72
2023/05/14 03:43:54;;;;;;;17.73;13.93;;;;;;;;;;5113558;28;20831;-73
2023/05/14 03:46:21;;;;;;;16.73;11.57;;;;;;;;;;5113718;28;20454;-72
2023/05/14 03:48:48;;;;;;;17.03;12.40;;;;;;;;;;5113635;28;20454;-72
2023/05/14 03:51:15;;;;;;;17.83;12.80;;;;;;;;;;5113471;28;20481;-72
2023/05/14 03:53:42;;;;;;;16.30;11.90;;;;;;;;;;5113268;28;20469;-72
2023/05/14 03:56:09;;;;;;;18.63;11.77;;;;;;;;;;5113593;28;20817;-72
2023/05/14 03:58:38;;;;;;;18.83;11.73;;;;;;;;;;5113669;28;20453;-72
2023/05/14 04:01:05;;;;;;;13.50;11.30;;;;;;;;;;5113634;28;20450;-72
2023/05/14 04:03:32;;;;;;;17.90;11.70;;;;;;;;;;5113184;28;20552;-72
2023/05/14 04:05:59;;;;;;;16.77;12.40;;;;;;;;;;5113466;28;20450;-72
2023/05/14 04:08:26;;;;;;;16.50;10.80;;;;;;;;;;5113272;28;20462;-72
2023/05/14 04:10:53;;;;;;;14.53;11.37;;;;;;;;;;5113476;28;20485;-72
2023/05/14 04:13:20;;;;;;;14.53;10.60;;;;;;;;;;5113361;28;21009;-72
2023/05/14 04:15:49;;;;;;;14.73;10.20;;;;;;;;;;5113543;28;20449;-72
2023/05/14 04:18:16;;;;;;;18.47;13.60;;;;;;;;;;5113501;28;20453;-72
2023/05/14 04:20:43;;;;;;;14.80;10.93;;;;;;;;;;5112827;28;20445;-72
2023/05/14 04:23:10;;;;;;;13.43;10.40;;;;;;;;;;5113366;28;20837;-72
2023/05/14 04:25:37;;;;;;;16.67;11.50;;;;;;;;;;5113069;28;20465;-72
2023/05/14 04:28:04;;;;;;;18.13;11.27;;;;;;;;;;5113427;28;20453;-72
2023/05/14 04:30:31;;;;;;;17.07;11.33;;;;;;;;;;5113015;28;20496;-72
2023/05/14 04:33:00;;;;;;;13.37;10.37;;;;;;;;;;5113276;28;20465;-72
2023/05/14 04:35:27;;;;;;;13.40;9.80;;;;;;;;;;5115750;28;20450;-72
2023/05/14 04:37:54;;;;;;;18.10;12.20;;;;;;;;;;5117135;28;20560;-73
2023/05/14 04:40:21;;;;;;;16.50;10.43;;;;;;;;;;5117454;28;20812;-72
2023/05/14 04:42:49;;;;;;;18.87;11.73;;;;;;;;;;5117345;28;20970;-72
2023/05/14 04:45:16;;;;;;;15.40;10.67;;;;;;;;;;5116945;27;20476;-72
2023/05/14 04:47:43;;;;;;;15.90;11.70;;;;;;;;;;5117019;27;20445;-72
2023/05/14 04:50:12;;;;;;;16.30;12.00;;;;;;;;;;5117129;28;20481;-72
2023/05/14 04:52:39;;;;;;;17.90;12.47;;;;;;;;;;5116786;28;20986;-72
2023/05/14 04:55:07;;;;;;;16.00;11.40;;;;;;;;;;5116823;28;20494;-72
2023/05/14 04:57:34;;;;;;;17.40;12.50;;;;;;;;;;5116865;28;20915;-72
2023/05/14 05:00:04;;;;;;;19.03;10.93;;;;;;;;;;5116816;28;20458;-72
2023/05/14 05:02:33;;;;;;;18.00;12.77;;;;;;;;;;5116688;28;20496;-72
2023/05/14 05:05:00;;;;;;;15.80;11.53;;;;;;;;;;5116968;28;20816;-72
2023/05/14 05:07:29;;;;;;;16.37;11.37;;;;;;;;;;5116675;27;20845;-72
2023/05/14 05:09:56;;;;;;;20.27;13.43;;;;;;;;;;5116486;28;20478;-73
2023/05/14 05:12:23;;;;;;;16.77;11.83;;;;;;;;;;5116479;28;20969;-72
2023/05/14 05:14:50;;;;;;;17.20;10.80;;;;;;;;;;5116316;28;20843;-72
2023/05/14 05:17:17;;;;;;;15.63;11.50;;;;;;;;;;5116670;28;20822;-72
2023/05/14 05:19:44;;;;;;;13.50;10.50;;;;;;;;;;5116057;28;20461;-72
2023/05/14 05:22:11;;;;;;;12.10;9.57;;;;;;;;;;5116363;28;20450;-72
2023/05/14 05:24:40;;;;;;;15.33;11.00;;;;;;;;;;5116037;28;20498;-73
2023/05/14 05:27:07;;;;;;;15.67;11.10;;;;;;;;;;5116376;28;20835;-72
2023/05/14 05:29:35;;;;;;;16.73;11.33;;;;;;;;;;5116060;28;20449;-73
2023/05/14 05:32:02;;;;;;;15.60;10.97;;;;;;;;;;5116226;28;20453;-72
2023/05/14 05:34:29;;;;;;;17.27;10.77;;;;;;;;;;5115841;28;20507;-73
2023/05/14 05:36:56;;;;;;;19.33;13.97;;;;;;;;;;5116414;28;20809;-72
2023/05/14 05:39:23;;;;;;;17.10;11.73;;;;;;;;;;5116084;28;20454;-73
2023/05/14 05:41:52;;;;;;;14.40;10.57;;;;;;;;;;5116044;28;20503;-73
2023/05/14 05:44:19;;;;;;;16.10;12.53;;;;;;;;;;5115618;28;20482;-72
2023/05/14 05:46:46;;;;;;;19.40;11.40;;;;;;;;;;5115822;28;20441;-72
2023/05/14 05:49:13;;;;;;;19.07;11.63;;;;;;;;;;5115909;28;20438;-72
2023/05/14 05:51:40;;;;;;;14.57;10.83;;;;;;;;;;5115683;28;20497;-72
2023/05/14 05:54:07;;;;;;;17.63;13.20;;;;;;;;;;5115615;28;20989;-73
2023/05/14 05:56:34;;;;;;;14.07;10.60;;;;;;;;;;5115861;28;20454;-72
2023/05/14 05:59:03;;;;;;;13.73;10.80;;;;;;;;;;5115785;28;20828;-73
2023/05/14 06:01:30;;;;;;;13.30;10.93;;;;;;;;;;5115658;28;20457;-72
2023/05/14 06:03:57;;;;;;;15.10;10.53;;;;;;;;;;5115287;28;20474;-73
2023/05/14 06:06:24;;;;;;;14.53;11.23;;;;;;;;;;5115322;27;20449;-72
2023/05/14 06:08:51;;;;;;;15.80;11.47;;;;;;;;;;5115598;28;20829;-73
2023/05/14 06:11:18;;;;;;;15.87;10.90;;;;;;;;;;5115318;28;20500;-72
2023/05/14 06:13:45;;;;;;;16.10;11.73;;;;;;;;;;5115209;28;20481;-73
2023/05/14 06:16:14;;;;;;;15.10;10.13;;;;;;;;;;5115349;28;20446;-73
2023/05/14 06:18:41;;;;;;;14.53;9.97;;;;;;;;;;5115390;27;20949;-72
2023/05/14 06:21:08;;;;;;;14.03;10.00;;;;;;;;;;5114620;28;20515;-73
2023/05/14 06:23:35;;;;;;;15.80;10.23;;;;;;;;;;5114958;28;20848;-73
2023/05/14 06:26:02;;;;;;;13.60;10.13;;;;;;;;;;5115144;28;20476;-72
2023/05/14 06:28:29;;;;;;;12.97;9.87;;;;;;;;;;5115026;28;20441;-72
2023/05/14 06:30:56;;;;;;;12.10;9.27;;;;;;;;;;5115106;28;20481;-73
2023/05/14 06:33:29;;;;;;;14.13;10.27;;;;;;;;;;5114838;27;20492;-73
2023/05/14 06:35:56;;;;;;;15.20;9.87;;;;;;;;;;5115258;28;20458;-73
2023/05/14 06:38:23;;;;;;;12.17;8.57;;;;;;;;;;5114852;28;20457;-72
2023/05/14 06:40:51;;;;;;;15.20;9.30;;;;;;;;;;5114939;28;20446;-72
2023/05/14 06:43:18;;;;;;;12.00;9.40;;;;;;;;;;5114794;28;20474;-73
2023/05/14 06:45:48;;;;;;;13.17;10.00;;;;;;;;;;5114569;28;20446;-73
2023/05/14 06:48:17;;;;;;;18.03;10.27;;;;;;;;;;5114890;28;20450;-72
2023/05/14 06:50:46;;;;;;;10.87;8.97;;;;;;;;;;5114693;28;20489;-72
2023/05/14 06:53:13;;;;;;;13.50;9.23;;;;;;;;;;5114816;28;20556;-72
2023/05/14 06:55:40;;;;;;;15.07;8.20;;;;;;;;;;5114389;27;20939;-72
2023/05/14 06:58:07;;;;;;;10.17;7.43;;;;;;;;;;5114134;28;20818;-72
2023/05/14 07:00:34;;;;;;;13.70;9.30;;;;;;;;;;5114299;28;21052;-72
2023/05/14 07:03:01;;;;;;;13.23;8.30;;;;;;;;;;5114573;28;21005;-73
2023/05/14 07:05:28;;;;;;;11.13;7.70;;;;;;;;;;5114334;28;20450;-72
2023/05/14 07:07:57;;;;;;;10.83;7.90;;;;;;;;;;5114383;28;20939;-72
2023/05/14 07:10:25;;;;;;;10.80;7.63;;;;;;;;;;5114340;27;20581;-72
2023/05/14 07:12:52;;;;;;;15.83;8.40;;;;;;;;;;5114529;28;20509;-72
2023/05/14 07:15:20;;;;;;;9.20;7.63;;;;;;;;;;5114122;28;20461;-72
2023/05/14 07:17:47;;;;;;;10.93;7.43;;;;;;;;;;5114240;28;20453;-72
2023/05/14 07:20:14;;;;;;;9.87;7.50;;;;;;;;;;5113788;28;20446;-73
2023/05/14 07:22:41;;;;;;;10.53;8.20;;;;;;;;;;5114085;28;20985;-72
2023/05/14 07:25:10;;;;;;;13.10;9.30;;;;;;;;;;5114159;28;20452;-72
2023/05/14 07:27:37;;;;;;;10.90;8.23;;;;;;;;;;5113869;28;20947;-73
2023/05/14 07:30:04;;;;;;;11.20;8.30;;;;;;;;;;5114344;28;20950;-73
2023/05/14 07:32:31;;;;;;;9.63;7.50;;;;;;;;;;5114150;28;20493;-73
2023/05/14 07:34:58;;;;;;;11.00;7.83;;;;;;;;;;5113799;28;20446;-72
2023/05/14 07:37:25;;;;;;;9.30;7.23;;;;;;;;;;5113785;28;20445;-72
2023/05/14 07:39:52;;;;;;;7.23;6.33;;;;;;;;;;5113911;28;20939;-73
2023/05/14 07:42:21;;;;;;;7.47;6.10;;;;;;;;;;5113836;28;20528;-73
2023/05/14 07:44:49;;;;;;;7.50;6.70;;;;;;;;;;5113650;28;20456;-73
2023/05/14 07:47:16;;;;;;;7.27;6.00;;;;;;;;;;5113749;28;20450;-73
2023/05/14 07:49:43;;;;;;;7.53;6.67;;;;;;;;;;5113916;28;20453;-73
2023/05/14 07:52:11;;;;;;;8.63;6.57;;;;;;;;;;5113453;28;20485;-73
2023/05/14 07:54:38;;;;;;;7.57;5.87;;;;;;;;;;5113385;28;20461;-73
2023/05/14 07:57:05;;;;;;;7.37;5.90;;;;;;;;;;5113576;28;20437;-73
2023/05/14 07:59:33;;;;;;;7.60;6.40;;;;;;;;;;5113522;28;20445;-73
2023/05/14 08:02:01;;;;;;;6.80;5.60;;;;;;;;;;5113483;28;20446;-73
2023/05/14 08:04:28;;;;;;;7.80;5.83;;;;;;;;;;5113182;28;20469;-73
2023/05/14 08:06:56;;;;;;;6.50;5.17;;;;;;;;;;5113790;28;20967;-73
2023/05/14 08:09:24;;;;;;;6.27;5.60;;;;;;;;;;5114285;28;20523;-73
2023/05/14 08:11:51;;;;;;;6.60;5.70;;;;;;;;;;5117652;28;20489;-72
2023/05/14 08:14:18;;;;;;;8.80;6.40;;;;;;;;;;5117301;28;20518;-73
2023/05/14 08:16:46;;;;;;;6.70;4.90;;;;;;;;;;5117797;28;20445;-72
2023/05/14 08:19:13;;;;;;;6.90;6.20;;;;;;;;;;5117679;27;20456;-72
2023/05/14 08:21:40;;;;;;;8.23;6.37;;;;;;;;;;5117411;28;20441;-73
2023/05/14 08:24:08;;;;;;;9.17;6.50;;;;;;;;;;5118027;28;20823;-73
2023/05/14 08:26:35;;;;;;;5.50;5.00;;;;;;;;;;5117619;28;20813;-73
2023/05/14 08:29:02;;;;;;;6.63;4.67;;;;;;;;;;5117579;28;20456;-72
2023/05/14 08:31:29;;;;;;;7.13;5.63;;;;;;;;;;5117461;28;20485;-73
2023/05/14 08:33:57;;;;;;;10.37;5.77;;;;;;;;;;5117403;28;20854;-73
2023/05/14 08:36:24;;;;;;;7.27;6.30;;;;;;;;;;5117509;28;20454;-73
2023/05/14 08:38:52;;;;;;;5.77;5.23;;;;;;;;;;5117436;28;20866;-73
2023/05/14 08:41:20;;;;;;;5.80;5.30;;;;;;;;;;5117647;28;20812;-73
2023/05/14 08:43:51;;;;;;;6.30;5.70;;;;;;;;;;5117293;28;20500;-73
2023/05/14 08:46:21;;;;;;;6.40;5.13;;;;;;;;;;5117176;28;20457;-73
2023/05/14 08:48:48;;;;;;;10.80;8.50;;;;;;;;;;5117236;28;20506;-73
2023/05/14 08:51:17;;;;;;;7.40;6.60;;;;;;;;;;5116904;28;20493;-73
2023/05/14 08:53:45;;;;;;;7.60;5.47;;;;;;;;;;5116674;28;20465;-74
2023/05/14 08:56:12;;;;;;;8.97;5.50;;;;;;;;;;5117005;28;20457;-73
2023/05/14 08:58:39;;;;;;;4.73;4.33;;;;;;;;;;5116889;28;20526;-73
2023/05/14 09:01:06;;;;;;;5.20;4.70;;;;;;;;;;5116791;28;20464;-73
2023/05/14 09:03:34;;;;;;;5.73;4.50;;;;;;;;;;5116447;28;20975;-74
2023/05/14 09:06:02;;;;;;;5.30;4.80;;;;;;;;;;5116824;28;20460;-73
2023/05/14 09:08:31;;;;;;;6.43;4.97;;;;;;;;;;5116999;28;20958;-73
2023/05/14 09:10:58;;;;;;;7.13;5.33;;;;;;;;;;5116847;28;20460;-73
2023/05/14 09:13:25;;;;;;;5.53;4.93;;;;;;;;;;5116480;28;20473;-74
2023/05/14 09:15:52;;;;;;;5.20;4.70;;;;;;;;;;5116559;28;20453;-74
2023/05/14 09:18:19;;;;;;;4.87;4.47;;;;;;;;;;5116480;28;20469;-74
2023/05/14 09:20:47;;;;;;;4.93;4.53;;;;;;;;;;5115946;28;20458;-74
2023/05/14 09:23:14;;;;;;;5.67;4.73;;;;;;;;;;5116405;28;20986;-74
2023/05/14 09:25:43;;;;;;;5.00;4.60;;;;;;;;;;5116200;28;20446;-73
2023/05/14 09:28:10;;;;;;;4.77;4.37;;;;;;;;;;5116428;28;20479;-74
2023/05/14 09:30:38;;;;;;;5.47;4.30;;;;;;;;;;5116301;28;20453;-74
2023/05/14 09:33:09;;;;;;;4.70;4.30;;;;;;;;;;5116175;28;20490;-74
2023/05/14 09:35:36;;;;;;;4.73;4.33;;;;;;;;;;5116002;28;20461;-74
2023/05/14 09:38:03;;;;;;;4.97;4.40;;;;;;;;;;5116187;28;20812;-74
2023/05/14 09:40:31;;;;;;;5.17;4.77;;;;;;;;;;5116039;28;20453;-74
2023/05/14 09:43:00;;;;;;;5.97;5.47;;;;;;;;;;5116352;28;20970;-74
2023/05/14 09:45:27;;;;;;;4.87;4.43;;;;;;;;;;5115719;28;20457;-74
2023/05/14 09:47:54;;;;;;;4.83;4.43;;;;;;;;;;5115978;28;20457;-74
2023/05/14 09:50:21;;;;;;;4.97;4.43;;;;;;;;;;5115975;28;20458;-74
2023/05/14 09:52:49;;;;;;;7.30;4.77;;;;;;;;;;5115672;28;20489;-74
2023/05/14 09:55:16;;;;;;;4.80;4.40;;;;;;;;;;5115555;28;20820;-74
2023/05/14 09:57:43;;;;;;;4.23;3.83;;;;;;;;;;5115792;28;20794;-74
2023/05/14 10:00:13;;;;;;;4.70;4.30;;;;;;;;;;5115837;28;20484;-74
2023/05/14 10:02:41;;;;;;;4.93;4.43;;;;;;;;;;5115626;28;20814;-74
2023/05/14 10:05:08;;;;;;;5.33;4.93;;;;;;;;;;5115724;28;20456;-74
2023/05/14 10:07:37;;;;;;;5.77;5.17;;;;;;;;;;5115695;28;20450;-74
2023/05/14 10:10:07;;;;;;;5.23;4.40;;;;;;;;;;5115350;28;20449;-74
2023/05/14 10:12:35;;;;;;;6.80;4.80;;;;;;;;;;5115380;28;20873;-74
2023/05/14 10:15:04;;;;;;;5.27;4.77;;;;;;;;;;5115191;28;20462;-74
2023/05/14 10:17:35;;;;;;;4.93;4.43;;;;;;;;;;5115260;28;20458;-74
2023/05/14 10:20:04;;;;;;;4.70;4.30;;;;;;;;;;5115127;28;21029;-74
2023/05/14 10:22:32;;;;;;;5.50;4.97;;;;;;;;;;5115138;28;20465;-74
2023/05/14 10:25:00;;;;;;;6.20;4.60;;;;;;;;;;5115137;28;20888;-74
2023/05/14 10:27:27;;;;;;;4.77;4.30;;;;;;;;;;5115182;28;20943;-74
2023/05/14 10:29:55;;;;;;;5.90;5.30;;;;;;;;;;5115169;28;20453;-74
2023/05/14 10:32:23;;;;;;;5.23;4.73;;;;;;;;;;5114223;28;20492;-73
2023/05/14 10:34:52;;;;;;;4.80;4.40;;;;;;;;;;5114887;28;20889;-73
2023/05/14 10:37:21;;;;;;;4.93;4.43;;;;;;;;;;5114916;28;20954;-74
2023/05/14 10:39:48;;;;;;;5.37;4.87;;;;;;;;;;5114770;28;20460;-74
2023/05/14 10:42:17;;;;;;;7.60;4.43;;;;;;;;;;5114816;28;20445;-74
2023/05/14 10:44:49;;;;;;;9.50;7.73;;;;;;;;;;5114741;28;20449;-74
2023/05/14 10:47:17;;;;;;;5.77;4.57;;;;;;;;;;5114714;28;20545;-74
2023/05/14 10:49:47;;;;;;;6.13;5.53;;;;;;;;;;5114631;28;20991;-74
2023/05/14 10:52:16;;;;;;;6.70;4.40;;;;;;;;;;5114583;28;20538;-74
2023/05/14 10:54:47;;;;;;;4.83;4.20;;;;;;;;;;5114174;28;20454;-73
2023/05/14 10:57:14;;;;;;;4.33;3.93;;;;;;;;;;5114543;28;20453;-73
2023/05/14 10:59:43;;;;;;;6.40;5.00;;;;;;;;;;5114611;28;20456;-73
2023/05/14 11:02:19;;;;;;;4.40;3.93;;;;;;;;;;5114393;27;20449;-73
2023/05/14 11:04:51;;;;;;;4.60;4.20;;;;;;;;;;5114284;28;20449;-74
2023/05/14 11:07:23;;;;;;;4.70;4.30;;;;;;;;;;5114354;28;20954;-74
2023/05/14 11:09:51;;;;;;;4.60;4.20;;;;;;;;;;5114425;28;20449;-74
2023/05/14 11:12:18;;;;;;;4.50;4.10;;;;;;;;;;5114176;28;20481;-74
2023/05/14 11:14:46;;;;;;;5.10;4.60;;;;;;;;;;5113726;28;20888;-74
2023/05/14 11:17:13;;;;;;;8.73;7.23;;;;;;;;;;5114110;28;20476;-73
2023/05/14 11:19:40;;;;;;;5.37;4.80;;;;;;;;;;5113581;28;20441;-74
2023/05/14 11:22:08;;;;;;;5.20;4.47;;;;;;;;;;5114099;28;20517;-74
2023/05/14 11:24:36;;;;;;;6.30;5.77;;;;;;;;;;5114137;28;20453;-74
2023/05/14 11:27:05;;;;;;;5.87;5.20;;;;;;;;;;5114069;27;20445;-76
2023/05/14 11:29:32;;;;;;;10.43;8.80;;;;;;;;;;5114059;28;20950;-76
2023/05/14 11:31:59;;;;;;;5.57;5.07;;;;;;;;;;5114002;28;20552;-74
2023/05/14 11:34:26;;;;;;;6.67;5.40;;;;;;;;;;5114007;28;20826;-74
2023/05/14 11:36:53;;;;;;;7.87;5.73;;;;;;;;;;5114063;28;20561;-74
2023/05/14 11:39:21;;;;;;;8.07;7.27;;;;;;;;;;5113856;28;20449;-73
2023/05/14 11:41:49;;;;;;;6.67;5.20;;;;;;;;;;5113953;28;20445;-73
2023/05/14 11:44:16;;;;;;;7.13;6.43;;;;;;;;;;5113873;28;20468;-74
2023/05/14 11:46:54;;;;;;;6.40;5.80;;;;;;;;;;5113908;28;20807;-73
2023/05/14 11:49:21;;;;;;;6.30;5.70;;;;;;;;;;5113775;28;20460;-74
2023/05/14 11:51:48;;;;;;;9.27;6.17;;;;;;;;;;5113690;28;20480;-73
2023/05/14 11:54:15;;;;;;;7.00;6.00;;;;;;;;;;5113274;28;20481;-73
2023/05/14 11:56:43;;;;;;;6.23;5.70;;;;;;;;;;5113534;28;20822;-73
2023/05/14 11:59:12;;;;;;;9.53;5.97;;;;;;;;;;5113852;28;20457;-73
2023/05/14 12:01:39;;;;;;;5.03;4.60;;;;;;;;;;5113689;28;20961;-73
2023/05/14 12:04:06;;;;;;;7.53;5.50;;;;;;;;;;5113337;28;20469;-73
2023/05/14 12:06:34;;;;;;;5.13;4.63;;;;;;;;;;5113401;28;20452;-73
2023/05/14 12:09:02;;;;;;;5.90;5.30;;;;;;;;;;5113436;28;20450;-74
2023/05/14 12:11:31;;;;;;;4.50;4.10;;;;;;;;;;5113253;28;20465;-73
2023/05/14 12:13:58;;;;;;;5.90;5.30;;;;;;;;;;5113158;28;20916;-74
2023/05/14 12:16:31;;;;;;;7.50;5.40;;;;;;;;;;5113295;28;20465;-73
2023/05/14 12:19:01;;;;;;;5.70;5.07;;;;;;;;;;5113507;28;20450;-73
2023/05/14 12:21:28;;;;;;;7.00;6.10;;;;;;;;;;5113320;28;20867;-73
2023/05/14 12:23:57;;;;;;;5.50;4.73;;;;;;;;;;5113154;28;20465;-74
2023/05/14 12:26:26;;;;;;;6.80;5.33;;;;;;;;;;5113334;28;20453;-74
2023/05/14 12:28:57;;;;;;;5.70;5.20;;;;;;;;;;5113445;28;20942;-73
2023/05/14 12:31:28;;;;;;;6.23;5.63;;;;;;;;;;5113245;28;20450;-73
2023/05/14 12:33:56;;;;;;;6.53;5.67;;;;;;;;;;5112908;28;20490;-73
2023/05/14 12:36:24;;;;;;;7.17;5.90;;;;;;;;;;5113492;28;20473;-73
2023/05/14 12:38:51;;;;;;;6.40;5.67;;;;;;;;;;5113527;28;20453;-73
2023/05/14 12:41:18;;;;;;;6.57;5.87;;;;;;;;;;5113183;28;20456;-73
2023/05/14 12:43:45;;;;;;;9.50;6.47;;;;;;;;;;5112862;28;20474;-73
2023/05/14 12:46:12;;;;;;;7.90;7.20;;;;;;;;;;5113142;28;20446;-74
2023/05/14 12:48:39;;;;;;;7.80;6.00;;;;;;;;;;5113104;28;20462;-73
2023/05/14 12:51:08;;;;;;;6.70;6.00;;;;;;;;;;5113069;28;20458;-73
2023/05/14 12:53:35;;;;;;;6.83;6.13;;;;;;;;;;5112808;28;20492;-73
2023/05/14 12:56:02;;;;;;;8.70;6.50;;;;;;;;;;5114828;28;20450;-73
2023/05/14 12:58:29;;;;;;;6.30;5.70;;;;;;;;;;5116986;28;20449;-73
2023/05/14 13:00:57;;;;;;;7.30;6.60;;;;;;;;;;5116786;28;20445;-74
2023/05/14 13:03:25;;;;;;;7.70;5.37;;;;;;;;;;5116583;28;20469;-73
2023/05/14 13:05:52;;;;;;;6.00;4.80;;;;;;;;;;5116555;28;20453;-72
2023/05/14 13:08:23;;;;;;;5.33;4.70;;;;;;;;;;5116884;28;21004;-73
2023/05/14 13:10:50;;;;;;;4.00;3.60;;;;;;;;;;5116827;27;20552;-73
2023/05/14 13:13:18;;;;;;;3.43;3.07;;;;;;;;;;5116276;28;20500;-73
2023/05/14 13:15:45;;;;;;;3.20;2.77;;;;;;;;;;5116367;28;20460;-73
2023/05/14 13:18:12;;;;;;;2.47;2.27;;;;;;;;;;5116735;28;20449;-73
2023/05/14 13:20:39;;;;;;;3.97;2.60;;;;;;;;;;5116312;28;20961;-73
2023/05/14 13:23:07;;;;;;;4.30;3.33;;;;;;;;;;5116485;28;20466;-73
2023/05/14 13:25:35;;;;;;;5.57;5.07;;;;;;;;;;5116216;28;20456;-73
2023/05/14 13:28:03;;;;;;;2.60;2.40;;;;;;;;;;5116521;28;20449;-73
2023/05/14 13:30:31;;;;;;;3.47;2.60;;;;;;;;;;5116319;28;20454;-73
2023/05/14 13:32:58;;;;;;;3.93;3.10;;;;;;;;;;5116363;28;20575;-73
2023/05/14 13:35:25;;;;;;;3.00;2.80;;;;;;;;;;5115897;28;20454;-73
2023/05/14 13:37:52;;;;;;;3.57;2.73;;;;;;;;;;5116324;28;20475;-73
2023/05/14 13:40:19;;;;;;;3.30;2.47;;;;;;;;;;5116119;28;20450;-73
2023/05/14 13:42:48;;;;;;;3.03;2.73;;;;;;;;;;5115922;28;20833;-73
2023/05/14 13:45:15;;;;;;;3.60;2.63;;;;;;;;;;5115810;28;20453;-73
2023/05/14 13:47:43;;;;;;;2.80;2.20;;;;;;;;;;5115944;28;20457;-73
2023/05/14 13:50:10;;;;;;;2.63;2.43;;;;;;;;;;5116014;28;20445;-72
2023/05/14 13:52:37;;;;;;;2.13;1.93;;;;;;;;;;5115596;28;20484;-73
2023/05/14 13:55:05;;;;;;;2.33;2.03;;;;;;;;;;5115494;28;20450;-73
2023/05/14 13:57:32;;;;;;;3.20;2.43;;;;;;;;;;5115741;28;20450;-73
2023/05/14 14:00:00;;;;;;;2.30;1.93;;;;;;;;;;5115732;28;20446;-73
2023/05/14 14:02:28;;;;;;;2.80;2.23;;;;;;;;;;5115669;28;20470;-73
2023/05/14 14:04:55;;;;;;;2.40;2.20;;;;;;;;;;5115712;28;20827;-73
2023/05/14 14:07:22;;;;;;;2.40;2.20;;;;;;;;;;5114311;28;20446;-73
2023/05/14 14:09:49;;;;;;;2.73;2.07;;;;;;;;;;5115627;28;20792;-73
2023/05/14 14:12:16;;;;;;;2.60;2.40;;;;;;;;;;5115384;27;20457;-73
2023/05/14 14:14:43;;;;;;;3.10;2.50;;;;;;;;;;5115128;28;20490;-72
2023/05/14 14:17:11;;;;;;;2.87;2.03;;;;;;;;;;5115446;28;20972;-72
2023/05/14 14:19:38;;;;;;;2.63;2.17;;;;;;;;;;5114867;27;20457;-72
2023/05/14 14:22:06;;;;;;;4.30;2.50;;;;;;;;;;5115398;28;20454;-73
2023/05/14 14:24:33;;;;;;;5.93;2.60;;;;;;;;;;5114917;28;20454;-72
2023/05/14 14:27:01;;;;;;;2.60;2.40;;;;;;;;;;5115234;28;20946;-72
2023/05/14 14:29:29;;;;;;;3.10;2.80;;;;;;;;;;5115234;28;20489;-73
2023/05/14 14:31:57;;;;;;;3.73;3.10;;;;;;;;;;5115140;28;20453;-72
2023/05/14 14:34:25;;;;;;;3.43;3.13;;;;;;;;;;5114585;28;20492;-72